createdAt,value
2023-02-11T00:00:48.094Z,9.55
2023-02-11T00:03:15.568Z,7.20
2023-02-11T00:05:43.055Z,8.60
2023-02-11T00:08:10.603Z,8.20
2023-02-11T00:10:37.825Z,8.63
2023-02-11T00:13:05.025Z,7.93
2023-02-11T00:15:32.313Z,8.48
2023-02-11T00:17:59.400Z,6.72
2023-02-11T00:20:27.511Z,8.23
2023-02-11T00:22:54.861Z,7.53
2023-02-11T00:25:23.034Z,8.23
2023-02-11T00:27:50.400Z,6.03
2023-02-11T00:30:17.715Z,9.07
2023-02-11T00:32:45.190Z,8.90
2023-02-11T00:35:12.548Z,8.63
2023-02-11T00:37:39.882Z,8.40
2023-02-11T00:40:07.604Z,9.18
2023-02-11T00:42:36.015Z,7.65
2023-02-11T00:45:04.232Z,6.80
2023-02-11T00:47:31.546Z,7.25
2023-02-11T00:50:01.136Z,8.05
2023-02-11T00:52:34.379Z,7.82
2023-02-11T00:55:01.449Z,8.38
2023-02-11T00:57:28.577Z,7.45
2023-02-11T00:59:55.593Z,8.27
2023-02-11T01:02:22.718Z,8.18
2023-02-11T01:04:50.109Z,7.20
2023-02-11T01:07:17.297Z,6.78
2023-02-11T01:09:44.464Z,7.40
2023-02-11T01:12:11.660Z,7.50
2023-02-11T01:14:41.355Z,7.53
2023-02-11T01:17:08.787Z,6.88
2023-02-11T01:19:37.695Z,7.53
2023-02-11T01:22:05.427Z,6.00
2023-02-11T01:24:32.833Z,6.60
2023-02-11T01:27:00.274Z,6.55
2023-02-11T01:29:27.908Z,6.90
2023-02-11T01:31:55.257Z,6.50
2023-02-11T01:34:22.421Z,6.35
2023-02-11T01:36:50.524Z,6.97
2023-02-11T01:39:18.299Z,6.68
2023-02-11T01:41:46.953Z,6.53
2023-02-11T01:44:35.110Z,7.82
2023-02-11T01:47:05.141Z,5.38
2023-02-11T01:49:41.910Z,6.38
2023-02-11T01:52:38.677Z,6.85
2023-02-11T01:55:30.062Z,5.68
2023-02-11T01:58:02.673Z,6.03
2023-02-11T02:00:37.708Z,6.05
2023-02-11T02:03:22.878Z,6.45
2023-02-11T02:06:17.005Z,5.05
2023-02-11T02:09:00.330Z,6.30
2023-02-11T02:11:29.881Z,5.45
2023-02-11T02:13:57.107Z,5.88
2023-02-11T02:16:37.248Z,5.30
2023-02-11T02:19:32.732Z,6.55
2023-02-11T02:22:38.755Z,6.22
2023-02-11T02:25:41.220Z,5.55
2023-02-11T02:28:46.313Z,6.00
2023-02-11T02:31:49.038Z,5.32
2023-02-11T02:34:23.893Z,4.85
2023-02-11T02:37:24.609Z,5.80
2023-02-11T02:39:51.935Z,5.38
2023-02-11T02:42:21.747Z,4.68
2023-02-11T02:44:53.510Z,6.15
2023-02-11T02:47:20.954Z,4.80
2023-02-11T02:49:48.293Z,5.38
2023-02-11T02:52:25.517Z,5.25
2023-02-11T02:55:10.865Z,5.15
2023-02-11T02:57:49.966Z,4.90
2023-02-11T03:00:36.381Z,4.97
2023-02-11T03:03:15.747Z,5.35
2023-02-11T03:06:05.234Z,4.88
2023-02-11T03:08:49.286Z,4.75
2023-02-11T03:11:19.469Z,4.68
2023-02-11T03:13:48.742Z,4.50
2023-02-11T03:16:21.592Z,4.90
2023-02-11T03:18:53.023Z,3.38
2023-02-11T03:21:21.109Z,4.85
2023-02-11T03:23:56.589Z,5.10
2023-02-11T03:26:30.365Z,5.10
2023-02-11T03:29:06.609Z,4.80
2023-02-11T03:32:04.455Z,4.63
2023-02-11T03:34:44.883Z,4.43
2023-02-11T03:37:18.586Z,4.43
2023-02-11T03:40:00.687Z,4.72
2023-02-11T03:42:33.852Z,4.57
2023-02-11T03:45:09.187Z,4.97
2023-02-11T03:47:39.930Z,4.30
2023-02-11T03:50:10.487Z,4.60
2023-02-11T03:52:38.510Z,4.47
2023-02-11T03:55:13.565Z,4.60
2023-02-11T03:57:40.762Z,5.38
2023-02-11T04:00:08.638Z,4.45
2023-02-11T04:02:42.059Z,4.35
2023-02-11T04:05:11.392Z,3.67
2023-02-11T04:07:38.571Z,4.53
2023-02-11T04:10:06.106Z,4.32
2023-02-11T04:12:33.223Z,4.72
2023-02-11T04:15:00.329Z,4.15
2023-02-11T04:17:27.459Z,3.50
2023-02-11T04:19:54.709Z,3.80
2023-02-11T04:22:22.163Z,3.78
2023-02-11T04:24:49.254Z,4.10
2023-02-11T04:27:16.409Z,3.50
2023-02-11T04:29:43.593Z,3.95
2023-02-11T04:32:11.874Z,3.97
2023-02-11T04:34:39.197Z,3.50
2023-02-11T04:37:07.053Z,3.67
2023-02-11T04:39:34.614Z,3.30
2023-02-11T04:42:01.885Z,3.47
2023-02-11T04:44:29.320Z,2.70
2023-02-11T04:46:56.544Z,3.47
2023-02-11T04:49:23.930Z,3.13
2023-02-11T04:51:51.866Z,4.00
2023-02-11T04:54:20.278Z,3.10
2023-02-11T04:56:50.053Z,3.20
2023-02-11T04:59:18.377Z,3.83
2023-02-11T05:01:48.310Z,3.42
2023-02-11T05:04:18.652Z,3.25
2023-02-11T05:06:45.888Z,2.58
2023-02-11T05:09:14.761Z,2.55
2023-02-11T05:11:42.110Z,3.63
2023-02-11T05:14:09.757Z,3.65
2023-02-11T05:16:39.251Z,4.07
2023-02-11T05:19:06.542Z,4.07
2023-02-11T05:21:33.961Z,3.67
2023-02-11T05:24:01.261Z,3.83
2023-02-11T05:26:28.568Z,3.88
2023-02-11T05:28:56.378Z,3.47
2023-02-11T05:31:23.721Z,4.28
2023-02-11T05:33:50.889Z,3.60
2023-02-11T05:36:18.131Z,3.95
2023-02-11T05:38:45.324Z,3.80
2023-02-11T05:41:13.274Z,4.03
2023-02-11T05:43:40.670Z,3.97
2023-02-11T05:46:08.142Z,3.95
2023-02-11T05:48:35.452Z,4.55
2023-02-11T05:51:02.867Z,4.32
2023-02-11T05:53:30.028Z,4.95
2023-02-11T05:55:57.673Z,4.22
2023-02-11T05:58:24.810Z,4.70
2023-02-11T06:00:51.979Z,4.90
2023-02-11T06:03:19.140Z,4.40
2023-02-11T06:05:46.562Z,4.28
2023-02-11T06:08:13.724Z,4.28
2023-02-11T06:10:43.328Z,4.18
2023-02-11T06:13:10.656Z,4.35
2023-02-11T06:15:37.851Z,4.53
2023-02-11T06:18:05.516Z,4.55
2023-02-11T06:20:32.931Z,4.82
2023-02-11T06:23:00.720Z,4.28
2023-02-11T06:25:27.843Z,4.97
2023-02-11T06:27:55.133Z,3.88
2023-02-11T06:30:22.406Z,4.53
2023-02-11T06:32:49.657Z,4.80
2023-02-11T06:35:17.034Z,4.45
2023-02-11T06:37:44.231Z,4.25
2023-02-11T06:40:12.481Z,3.50
2023-02-11T06:42:40.249Z,2.92
2023-02-11T06:45:13.365Z,4.53
2023-02-11T06:47:41.029Z,3.70
2023-02-11T06:50:11.205Z,4.28
2023-02-11T06:52:38.308Z,4.50
2023-02-11T06:55:05.775Z,4.15
2023-02-11T06:57:33.075Z,3.97
2023-02-11T07:00:00.178Z,4.75
2023-02-11T07:02:27.316Z,4.65
2023-02-11T07:04:54.501Z,4.47
2023-02-11T07:07:21.551Z,4.57
2023-02-11T07:09:48.662Z,4.57
2023-02-11T07:12:15.753Z,5.07
2023-02-11T07:14:42.934Z,3.92
2023-02-11T07:17:10.260Z,4.30
2023-02-11T07:19:37.462Z,4.80
2023-02-11T07:22:04.723Z,4.35
2023-02-11T07:24:31.950Z,4.63
2023-02-11T07:26:59.172Z,4.80
2023-02-11T07:29:26.366Z,5.00
2023-02-11T07:31:53.577Z,4.53
2023-02-11T07:34:20.699Z,4.68
2023-02-11T07:36:49.108Z,4.43
2023-02-11T07:39:16.381Z,5.00
2023-02-11T07:41:44.610Z,4.70
2023-02-11T07:44:12.205Z,5.07
2023-02-11T07:46:43.334Z,4.32
2023-02-11T07:49:10.542Z,5.28
2023-02-11T07:51:37.986Z,4.95
2023-02-11T07:54:05.051Z,5.95
2023-02-11T07:56:33.272Z,5.55
2023-02-11T07:59:03.051Z,5.55
2023-02-11T08:01:30.895Z,5.35
2023-02-11T08:03:59.408Z,5.43
2023-02-11T08:06:30.506Z,5.30
2023-02-11T08:08:57.830Z,4.97
2023-02-11T08:11:27.370Z,5.22
2023-02-11T08:13:57.425Z,6.88
2023-02-11T08:16:30.088Z,5.93
2023-02-11T08:19:00.095Z,6.10
2023-02-11T08:21:28.400Z,6.10
2023-02-11T08:23:56.088Z,5.90
2023-02-11T08:26:28.910Z,5.85
2023-02-11T08:28:58.200Z,5.63
2023-02-11T08:31:27.967Z,5.70
2023-02-11T08:33:58.165Z,6.68
2023-02-11T08:36:29.322Z,6.20
2023-02-11T08:39:12.113Z,5.50
2023-02-11T08:41:45.837Z,5.70
2023-02-11T08:44:13.280Z,5.82
2023-02-11T08:46:40.475Z,5.65
2023-02-11T08:49:08.203Z,4.97
2023-02-11T08:51:35.733Z,5.68
2023-02-11T08:54:03.116Z,5.90
2023-02-11T08:56:31.812Z,5.80
2023-02-11T08:58:59.202Z,5.90
2023-02-11T09:01:29.816Z,4.80
2023-02-11T09:03:58.454Z,5.55
2023-02-11T09:06:26.414Z,7.05
2023-02-11T09:08:57.802Z,6.15
2023-02-11T09:11:34.278Z,4.88
2023-02-11T09:14:02.722Z,6.07
2023-02-11T09:16:33.778Z,6.32
2023-02-11T09:19:03.461Z,6.53
2023-02-11T09:21:33.576Z,6.05
2023-02-11T09:24:00.959Z,5.25
2023-02-11T09:26:33.042Z,5.65
2023-02-11T09:29:00.993Z,5.20
2023-02-11T09:31:30.913Z,5.35
2023-02-11T09:34:06.098Z,5.40
2023-02-11T09:36:38.873Z,6.40
2023-02-11T09:39:09.693Z,5.70
2023-02-11T09:41:56.631Z,5.20
2023-02-11T09:44:31.653Z,5.20
2023-02-11T09:47:02.319Z,5.07
2023-02-11T09:49:47.493Z,5.38
2023-02-11T09:52:54.309Z,5.75
2023-02-11T09:55:25.924Z,4.57
2023-02-11T09:57:53.558Z,5.45
2023-02-11T10:00:40.143Z,5.10
2023-02-11T10:03:19.657Z,4.53
2023-02-11T10:06:14.521Z,5.82
2023-02-11T10:09:13.088Z,5.13
2023-02-11T10:11:46.000Z,5.68
2023-02-11T10:14:40.433Z,5.35
2023-02-11T10:17:14.925Z,5.55
2023-02-11T10:19:42.486Z,5.50
2023-02-11T10:22:24.846Z,5.57
2023-02-11T10:24:58.525Z,6.22
2023-02-11T10:27:35.668Z,5.60
2023-02-11T10:30:34.287Z,5.78
2023-02-11T10:33:12.240Z,5.75
2023-02-11T10:35:39.531Z,5.75
2023-02-11T10:38:09.436Z,5.80
2023-02-11T10:40:36.668Z,5.45
2023-02-11T10:43:08.148Z,5.57
2023-02-11T10:45:38.106Z,4.72
2023-02-11T10:48:26.032Z,5.78
2023-02-11T10:51:08.940Z,5.88
2023-02-11T10:53:36.059Z,6.30
2023-02-11T10:56:03.809Z,5.20
2023-02-11T10:58:41.380Z,6.03
2023-02-11T11:01:23.505Z,5.50
2023-02-11T11:03:54.906Z,6.30
2023-02-11T11:06:34.972Z,4.95
2023-02-11T11:09:02.325Z,6.63
2023-02-11T11:11:29.516Z,6.47
2023-02-11T11:14:01.743Z,5.78
2023-02-11T11:16:38.188Z,7.57
2023-02-11T11:19:08.092Z,5.70
2023-02-11T11:21:56.661Z,5.35
2023-02-11T11:24:34.612Z,6.80
2023-02-11T11:27:04.370Z,5.60
2023-02-11T11:29:37.679Z,5.00
2023-02-11T11:32:24.314Z,5.82
2023-02-11T11:35:00.157Z,5.85
2023-02-11T11:37:30.630Z,5.20
2023-02-11T11:40:02.703Z,5.07
2023-02-11T11:42:37.101Z,5.55
2023-02-11T11:45:04.717Z,5.80
2023-02-11T11:47:34.727Z,6.05
2023-02-11T11:50:21.257Z,6.78
2023-02-11T11:52:56.974Z,6.57
2023-02-11T11:56:11.670Z,6.88
2023-02-11T11:58:39.213Z,5.10
2023-02-11T12:01:43.601Z,5.07
2023-02-11T12:04:32.908Z,6.25
2023-02-11T12:07:25.976Z,4.90
2023-02-11T12:10:15.186Z,5.15
2023-02-11T12:12:53.749Z,6.43
2023-02-11T12:15:36.797Z,6.15
2023-02-11T12:18:22.312Z,5.30
2023-02-11T12:21:26.953Z,6.85
2023-02-11T12:23:54.081Z,9.23
2023-02-11T12:26:33.294Z,7.45
2023-02-11T12:29:31.739Z,6.00
2023-02-11T12:32:29.801Z,6.47
2023-02-11T12:35:15.322Z,5.75
2023-02-11T12:38:16.161Z,5.88
2023-02-11T12:41:10.465Z,5.60
2023-02-11T12:43:41.012Z,6.43
2023-02-11T12:46:12.050Z,5.47
2023-02-11T12:48:48.262Z,6.97
2023-02-11T12:51:32.805Z,5.78
2023-02-11T12:54:21.908Z,6.15
2023-02-11T12:57:03.028Z,4.47
2023-02-11T12:59:41.145Z,6.25
2023-02-11T13:02:31.561Z,6.50
2023-02-11T13:05:14.267Z,6.72
2023-02-11T13:07:45.615Z,7.57
2023-02-11T13:10:21.872Z,6.80
2023-02-11T13:13:10.396Z,5.53
2023-02-11T13:15:39.470Z,6.70
2023-02-11T13:18:27.978Z,7.13
2023-02-11T13:21:15.174Z,6.72
2023-02-11T13:23:42.543Z,6.63
2023-02-11T13:26:28.940Z,6.70
2023-02-11T13:29:33.266Z,6.90
2023-02-11T13:32:26.815Z,7.85
2023-02-11T13:34:56.660Z,6.43
2023-02-11T13:37:30.890Z,7.47
2023-02-11T13:40:05.147Z,8.45
2023-02-11T13:42:48.186Z,7.32
2023-02-11T13:45:48.903Z,7.82
2023-02-11T13:48:32.543Z,6.32
2023-02-11T13:51:02.494Z,7.05
2023-02-11T13:53:31.063Z,7.25
2023-02-11T13:56:09.465Z,6.28
2023-02-11T13:58:47.816Z,6.18
2023-02-11T14:01:41.926Z,7.70
2023-02-11T14:04:47.367Z,7.15
2023-02-11T14:10:43.999Z,6.70
2023-02-11T14:13:41.940Z,6.75
2023-02-11T14:16:36.902Z,7.50
2023-02-11T14:19:06.556Z,6.20
2023-02-11T14:21:37.756Z,6.68
2023-02-11T14:24:05.159Z,6.78
2023-02-11T14:27:00.615Z,7.47
2023-02-11T14:29:51.426Z,6.88
2023-02-11T14:32:38.202Z,7.10
2023-02-11T14:35:08.420Z,6.72
2023-02-11T14:37:50.627Z,7.68
2023-02-11T14:40:27.257Z,7.03
2023-02-11T14:42:56.445Z,6.32
2023-02-11T14:45:27.560Z,6.45
2023-02-11T14:48:08.595Z,7.03
2023-02-11T14:50:38.793Z,5.53
2023-02-11T14:53:11.755Z,6.63
2023-02-11T14:55:43.381Z,6.28
2023-02-11T14:58:19.687Z,7.63
2023-02-11T15:01:09.371Z,6.70
2023-02-11T15:03:42.429Z,7.28
2023-02-11T15:06:22.612Z,6.82
2023-02-11T15:09:19.066Z,6.53
2023-02-11T15:11:49.223Z,6.55
2023-02-11T15:14:19.200Z,6.15
2023-02-11T15:16:48.121Z,7.30
2023-02-11T15:19:32.346Z,6.55
2023-02-11T15:22:33.211Z,7.15
2023-02-11T15:25:10.978Z,5.55
2023-02-11T15:28:02.260Z,6.10
2023-02-11T15:30:34.352Z,6.10
2023-02-11T15:33:05.680Z,7.22
2023-02-11T15:35:37.424Z,6.45
2023-02-11T15:38:05.275Z,6.55
2023-02-11T15:40:37.718Z,6.28
2023-02-11T15:43:12.078Z,5.47
2023-02-11T15:45:42.993Z,5.57
2023-02-11T15:48:16.511Z,7.20
2023-02-11T15:50:50.879Z,6.90
2023-02-11T15:53:40.880Z,5.03
2023-02-11T15:56:12.968Z,7.32
2023-02-11T15:58:43.045Z,6.47
2023-02-11T16:01:11.434Z,5.60
2023-02-11T16:03:42.604Z,5.28
2023-02-11T16:06:21.533Z,6.07
2023-02-11T16:09:00.568Z,7.00
2023-02-11T16:11:56.064Z,6.47
2023-02-11T16:14:39.581Z,5.68
2023-02-11T16:17:13.232Z,4.82
2023-02-11T16:19:49.487Z,6.10
2023-02-11T16:22:25.293Z,5.38
2023-02-11T16:24:58.090Z,7.07
2023-02-11T16:27:30.588Z,6.88
2023-02-11T16:29:59.018Z,6.05
2023-02-11T16:32:30.613Z,5.80
2023-02-11T16:35:00.960Z,3.95
2023-02-11T16:37:28.846Z,5.95
2023-02-11T16:39:58.347Z,5.53
2023-02-11T16:42:26.924Z,4.72
2023-02-11T16:44:54.120Z,6.65
2023-02-11T16:47:26.778Z,6.65
2023-02-11T16:49:55.977Z,6.55
2023-02-11T16:52:25.749Z,7.15
2023-02-11T16:54:53.275Z,4.80
2023-02-11T16:57:29.603Z,6.63
2023-02-11T16:59:59.380Z,6.32
2023-02-11T17:02:31.663Z,7.15
2023-02-11T17:05:03.722Z,6.85
2023-02-11T17:07:34.712Z,6.97
2023-02-11T17:10:02.404Z,7.95
2023-02-11T17:12:30.938Z,6.07
2023-02-11T17:14:58.243Z,6.47
2023-02-11T17:17:25.441Z,6.80
2023-02-11T17:19:52.562Z,7.05
2023-02-11T17:22:19.711Z,7.25
2023-02-11T17:24:46.753Z,6.60
2023-02-11T17:27:15.393Z,6.63
2023-02-11T17:29:42.684Z,6.00
2023-02-11T17:32:12.842Z,6.78
2023-02-11T17:34:40.236Z,6.32
2023-02-11T17:37:09.446Z,6.65
2023-02-11T17:39:37.747Z,7.10
2023-02-11T17:42:06.213Z,8.02
2023-02-11T17:44:34.019Z,6.82
2023-02-11T17:47:01.227Z,6.72
2023-02-11T17:49:28.671Z,7.70
2023-02-11T17:51:55.899Z,7.28
2023-02-11T17:54:23.140Z,7.72
2023-02-11T17:56:51.014Z,6.85
2023-02-11T17:59:18.284Z,7.53
2023-02-11T18:01:45.465Z,5.90
2023-02-11T18:04:19.456Z,6.80
2023-02-11T18:06:47.209Z,8.07
2023-02-11T18:09:14.628Z,7.05
2023-02-11T18:11:42.374Z,6.75
2023-02-11T18:14:11.078Z,6.47
2023-02-11T18:16:40.479Z,7.10
2023-02-11T18:19:11.716Z,5.10
2023-02-11T18:21:39.372Z,7.72
2023-02-11T18:24:07.316Z,7.35
2023-02-11T18:26:35.819Z,6.65
2023-02-11T18:29:07.398Z,5.95
2023-02-11T18:31:37.803Z,8.20
2023-02-11T18:34:07.665Z,6.38
2023-02-11T18:36:35.750Z,6.20
2023-02-11T18:39:05.153Z,6.60
2023-02-11T18:41:32.646Z,7.65
2023-02-11T18:44:03.280Z,8.18
2023-02-11T18:46:31.528Z,7.60
2023-02-11T18:49:02.251Z,7.60
2023-02-11T18:51:32.818Z,6.90
2023-02-11T18:54:04.441Z,7.93
2023-02-11T18:56:35.157Z,6.95
2023-02-11T19:01:34.548Z,6.18
2023-02-11T19:04:04.673Z,7.97
2023-02-11T19:06:35.002Z,7.90
2023-02-11T19:09:07.913Z,7.95
2023-02-11T19:11:47.198Z,6.50
2023-02-11T19:14:22.547Z,7.07
2023-02-11T19:16:51.640Z,7.70
2023-02-11T19:19:20.256Z,7.10
2023-02-11T19:21:50.759Z,6.63
2023-02-11T19:24:27.073Z,6.97
2023-02-11T19:27:00.066Z,8.15
2023-02-11T19:29:28.306Z,7.88
2023-02-11T19:31:56.143Z,8.50
2023-02-11T19:34:26.373Z,7.63
2023-02-11T19:36:56.876Z,7.93
2023-02-11T19:39:24.950Z,6.65
2023-02-11T19:41:52.781Z,6.18
2023-02-11T19:44:20.299Z,5.53
2023-02-11T19:46:49.100Z,8.07
2023-02-11T19:49:28.824Z,5.72
2023-02-11T19:52:03.096Z,7.22
2023-02-11T19:54:40.607Z,7.90
2023-02-11T19:57:08.219Z,6.60
2023-02-11T19:59:35.498Z,7.38
2023-02-11T20:02:05.580Z,7.95
2023-02-11T20:04:33.479Z,7.38
2023-02-11T20:07:00.675Z,7.38
2023-02-11T20:09:29.149Z,9.07
2023-02-11T20:11:56.514Z,6.53
2023-02-11T20:14:25.602Z,7.80
2023-02-11T20:16:54.700Z,7.28
2023-02-11T20:19:22.763Z,6.55
2023-02-11T20:21:53.071Z,8.15
2023-02-11T20:24:20.760Z,8.38
2023-02-11T20:26:48.917Z,7.35
2023-02-11T20:29:18.266Z,6.40
2023-02-11T20:31:45.880Z,7.97
2023-02-11T20:34:13.379Z,7.32
2023-02-11T20:36:43.320Z,7.05
2023-02-11T20:39:11.652Z,8.32
2023-02-11T20:41:41.786Z,7.82
2023-02-11T20:44:11.032Z,7.65
2023-02-11T20:46:41.267Z,6.88
2023-02-11T20:49:12.007Z,6.95
2023-02-11T20:51:39.949Z,7.68
2023-02-11T20:54:18.974Z,6.60
2023-02-11T20:56:48.218Z,8.20
2023-02-11T20:59:16.950Z,8.00
2023-02-11T21:01:47.878Z,7.75
2023-02-11T21:04:26.490Z,6.95
2023-02-11T21:06:55.985Z,8.02
2023-02-11T21:09:26.619Z,7.55
2023-02-11T21:11:54.743Z,8.30
2023-02-11T21:14:23.462Z,6.90
2023-02-11T21:16:51.177Z,6.28
2023-02-11T21:19:20.180Z,7.15
2023-02-11T21:21:47.621Z,8.43
2023-02-11T21:24:14.808Z,7.20
2023-02-11T21:26:42.545Z,7.07
2023-02-11T21:29:10.133Z,7.28
2023-02-11T21:31:38.168Z,7.18
2023-02-11T21:34:05.753Z,7.40
2023-02-11T21:36:33.084Z,7.10
2023-02-11T21:39:01.934Z,7.47
2023-02-11T21:41:29.497Z,6.82
2023-02-11T21:43:56.836Z,8.02
2023-02-11T21:46:24.702Z,7.93
2023-02-11T21:48:52.388Z,7.47
2023-02-11T21:51:22.415Z,7.03
2023-02-11T21:53:54.474Z,7.68
2023-02-11T21:56:21.740Z,6.95
2023-02-11T21:58:52.530Z,6.53
2023-02-11T22:01:22.406Z,7.05
2023-02-11T22:03:50.158Z,7.05
2023-02-11T22:06:23.741Z,6.10
2023-02-11T22:08:51.033Z,7.15
2023-02-11T22:11:18.316Z,7.70
2023-02-11T22:13:46.084Z,7.40
2023-02-11T22:16:15.971Z,7.50
2023-02-11T22:18:47.150Z,7.32
2023-02-11T22:21:17.417Z,7.43
2023-02-11T22:23:45.044Z,7.60
2023-02-11T22:26:15.355Z,7.35
2023-02-11T22:28:43.012Z,6.57
2023-02-11T22:31:25.254Z,7.47
2023-02-11T22:33:52.479Z,6.78
2023-02-11T22:36:28.734Z,7.63
2023-02-11T22:38:56.379Z,6.93
2023-02-11T22:41:23.628Z,7.45
2023-02-11T22:43:50.853Z,7.68
2023-02-11T22:46:19.983Z,7.25
2023-02-11T22:48:48.518Z,8.35
2023-02-11T22:51:21.875Z,6.65
2023-02-11T22:53:51.269Z,7.35
2023-02-11T22:56:18.657Z,7.40
2023-02-11T22:58:45.810Z,7.47
2023-02-11T23:01:13.818Z,7.07
2023-02-11T23:03:41.203Z,6.93
2023-02-11T23:06:08.904Z,6.55
2023-02-11T23:08:37.936Z,6.57
2023-02-11T23:11:10.007Z,6.13
2023-02-11T23:13:39.707Z,5.88
2023-02-11T23:16:10.173Z,6.15
2023-02-11T23:18:39.085Z,6.47
2023-02-11T23:21:11.390Z,6.60
2023-02-11T23:26:14.028Z,6.32
2023-02-11T23:28:42.129Z,6.20
2023-02-11T23:31:15.553Z,6.07
2023-02-11T23:33:43.086Z,5.85
2023-02-11T23:36:10.751Z,5.80
2023-02-11T23:38:38.064Z,6.38
2023-02-11T23:41:05.598Z,5.70
2023-02-11T23:43:32.822Z,5.60
2023-02-11T23:46:00.170Z,6.28
2023-02-11T23:48:27.601Z,5.40
2023-02-11T23:50:54.815Z,5.68
2023-02-11T23:53:22.018Z,5.70
2023-02-11T23:55:49.323Z,5.57
2023-02-11T23:58:16.597Z,6.05
